<?xml version="1.0" encoding="UTF-8" standalone="no" ?>
<gpx xmlns="http://www.topografix.com/GPX/1/1" xmlns:xsi="http://www.w3.org/2001/XMLSchema-instance" xsi:schemaLocation="http://www.topografix.com/GPX/1/1 http://www.topografix.com/GPX/1/1/gpx.xsd" version="1.1" creator="VisuGPX - https://www.visugpx.com">
  <metadata>
    <name>COL DE L\'EVEQUE  MAL INFERNET</name>
    <desc><![CDATA[CIRCUIT AU DEPART DU COL DDE L\'EVEQUE POUR SUIVRE LE MAL INFERNET]]></desc>
  </metadata>
  <trk>
    <name><![CDATA[Col de l'évêque. Mal Infernet]]></name>
    <cmt><![CDATA[24 juil. 2014 09:08:23]]></cmt>
    <trkseg>
      <trkpt lat="43.46151" lon="6.90653">
        <ele>153</ele>
        <time>2014-07-24T07:08:23Z</time>
      </trkpt>
      <trkpt lat="43.46153" lon="6.90651">
        <ele>154</ele>
        <time>2014-07-24T07:11:04Z</time>
      </trkpt>
      <trkpt lat="43.46163" lon="6.90636">
        <ele>156</ele>
        <time>2014-07-24T07:13:07Z</time>
      </trkpt>
      <trkpt lat="43.46164" lon="6.90626">
        <ele>154</ele>
        <time>2014-07-24T07:14:40Z</time>
      </trkpt>
      <trkpt lat="43.46182" lon="6.90589">
        <ele>150</ele>
        <time>2014-07-24T07:15:04Z</time>
      </trkpt>
      <trkpt lat="43.46184" lon="6.90582">
        <ele>150</ele>
        <time>2014-07-24T07:15:08Z</time>
      </trkpt>
      <trkpt lat="43.46191" lon="6.90563">
        <ele>151</ele>
        <time>2014-07-24T07:15:19Z</time>
      </trkpt>
      <trkpt lat="43.46195" lon="6.9056">
        <ele>151</ele>
        <time>2014-07-24T07:15:23Z</time>
      </trkpt>
      <trkpt lat="43.46199" lon="6.90555">
        <ele>151</ele>
        <time>2014-07-24T07:15:28Z</time>
      </trkpt>
      <trkpt lat="43.46232" lon="6.90517">
        <ele>159</ele>
        <time>2014-07-24T07:16:00Z</time>
      </trkpt>
      <trkpt lat="43.46236" lon="6.90512">
        <ele>160</ele>
        <time>2014-07-24T07:16:05Z</time>
      </trkpt>
      <trkpt lat="43.46244" lon="6.90502">
        <ele>158</ele>
        <time>2014-07-24T07:16:14Z</time>
      </trkpt>
      <trkpt lat="43.46249" lon="6.90501">
        <ele>157</ele>
        <time>2014-07-24T07:16:19Z</time>
      </trkpt>
      <trkpt lat="43.46259" lon="6.90501">
        <ele>157</ele>
        <time>2014-07-24T07:16:26Z</time>
      </trkpt>
      <trkpt lat="43.46284" lon="6.90518">
        <ele>156</ele>
        <time>2014-07-24T07:16:52Z</time>
      </trkpt>
      <trkpt lat="43.46292" lon="6.90524">
        <ele>157</ele>
        <time>2014-07-24T07:17:00Z</time>
      </trkpt>
      <trkpt lat="43.463" lon="6.90531">
        <ele>158</ele>
        <time>2014-07-24T07:17:08Z</time>
      </trkpt>
      <trkpt lat="43.46306" lon="6.90541">
        <ele>157</ele>
        <time>2014-07-24T07:17:16Z</time>
      </trkpt>
      <trkpt lat="43.4632" lon="6.90558">
        <ele>156</ele>
        <time>2014-07-24T07:17:33Z</time>
      </trkpt>
      <trkpt lat="43.46343" lon="6.90615">
        <ele>150</ele>
        <time>2014-07-24T07:18:11Z</time>
      </trkpt>
      <trkpt lat="43.46351" lon="6.90624">
        <ele>150</ele>
        <time>2014-07-24T07:18:19Z</time>
      </trkpt>
      <trkpt lat="43.46357" lon="6.90668">
        <ele>147</ele>
        <time>2014-07-24T07:18:44Z</time>
      </trkpt>
      <trkpt lat="43.46359" lon="6.90675">
        <ele>146</ele>
        <time>2014-07-24T07:18:48Z</time>
      </trkpt>
      <trkpt lat="43.46362" lon="6.90679">
        <ele>146</ele>
        <time>2014-07-24T07:18:52Z</time>
      </trkpt>
      <trkpt lat="43.4637" lon="6.90687">
        <ele>147</ele>
        <time>2014-07-24T07:19:01Z</time>
      </trkpt>
      <trkpt lat="43.46373" lon="6.90686">
        <ele>145</ele>
        <time>2014-07-24T07:19:23Z</time>
      </trkpt>
      <trkpt lat="43.46373" lon="6.90664">
        <ele>139</ele>
        <time>2014-07-24T07:19:48Z</time>
      </trkpt>
      <trkpt lat="43.46372" lon="6.90658">
        <ele>137</ele>
        <time>2014-07-24T07:19:53Z</time>
      </trkpt>
      <trkpt lat="43.46373" lon="6.90645">
        <ele>134</ele>
        <time>2014-07-24T07:20:01Z</time>
      </trkpt>
      <trkpt lat="43.46374" lon="6.90638">
        <ele>134</ele>
        <time>2014-07-24T07:20:05Z</time>
      </trkpt>
      <trkpt lat="43.46375" lon="6.9061">
        <ele>128</ele>
        <time>2014-07-24T07:20:24Z</time>
      </trkpt>
      <trkpt lat="43.46378" lon="6.90605">
        <ele>129</ele>
        <time>2014-07-24T07:20:27Z</time>
      </trkpt>
      <trkpt lat="43.46382" lon="6.90601">
        <ele>130</ele>
        <time>2014-07-24T07:20:31Z</time>
      </trkpt>
      <trkpt lat="43.46385" lon="6.90595">
        <ele>130</ele>
        <time>2014-07-24T07:20:35Z</time>
      </trkpt>
      <trkpt lat="43.46378" lon="6.90586">
        <ele>128</ele>
        <time>2014-07-24T07:20:46Z</time>
      </trkpt>
      <trkpt lat="43.46369" lon="6.90581">
        <ele>128</ele>
        <time>2014-07-24T07:20:53Z</time>
      </trkpt>
      <trkpt lat="43.46353" lon="6.90549">
        <ele>122</ele>
        <time>2014-07-24T07:21:21Z</time>
      </trkpt>
      <trkpt lat="43.46339" lon="6.90501">
        <ele>116</ele>
        <time>2014-07-24T07:21:53Z</time>
      </trkpt>
      <trkpt lat="43.46332" lon="6.90491">
        <ele>116</ele>
        <time>2014-07-24T07:22:00Z</time>
      </trkpt>
      <trkpt lat="43.46309" lon="6.90468">
        <ele>114</ele>
        <time>2014-07-24T07:22:22Z</time>
      </trkpt>
      <trkpt lat="43.46294" lon="6.90434">
        <ele>118</ele>
        <time>2014-07-24T07:22:42Z</time>
      </trkpt>
      <trkpt lat="43.46289" lon="6.90423">
        <ele>118</ele>
        <time>2014-07-24T07:22:50Z</time>
      </trkpt>
      <trkpt lat="43.46272" lon="6.9041">
        <ele>119</ele>
        <time>2014-07-24T07:23:05Z</time>
      </trkpt>
      <trkpt lat="43.46271" lon="6.90396">
        <ele>118</ele>
        <time>2014-07-24T07:23:11Z</time>
      </trkpt>
      <trkpt lat="43.46269" lon="6.90382">
        <ele>117</ele>
        <time>2014-07-24T07:23:19Z</time>
      </trkpt>
      <trkpt lat="43.46261" lon="6.90373">
        <ele>117</ele>
        <time>2014-07-24T07:23:26Z</time>
      </trkpt>
      <trkpt lat="43.46255" lon="6.90321">
        <ele>116</ele>
        <time>2014-07-24T07:23:54Z</time>
      </trkpt>
      <trkpt lat="43.46253" lon="6.90307">
        <ele>116</ele>
        <time>2014-07-24T07:24:01Z</time>
      </trkpt>
      <trkpt lat="43.4625" lon="6.90294">
        <ele>115</ele>
        <time>2014-07-24T07:24:09Z</time>
      </trkpt>
      <trkpt lat="43.46247" lon="6.90281">
        <ele>115</ele>
        <time>2014-07-24T07:24:17Z</time>
      </trkpt>
      <trkpt lat="43.46242" lon="6.90271">
        <ele>115</ele>
        <time>2014-07-24T07:24:24Z</time>
      </trkpt>
      <trkpt lat="43.46232" lon="6.90233">
        <ele>108</ele>
        <time>2014-07-24T07:24:49Z</time>
      </trkpt>
      <trkpt lat="43.4623" lon="6.9022">
        <ele>108</ele>
        <time>2014-07-24T07:24:57Z</time>
      </trkpt>
      <trkpt lat="43.46228" lon="6.90168">
        <ele>111</ele>
        <time>2014-07-24T07:25:23Z</time>
      </trkpt>
      <trkpt lat="43.46226" lon="6.90154">
        <ele>111</ele>
        <time>2014-07-24T07:25:30Z</time>
      </trkpt>
      <trkpt lat="43.46219" lon="6.90128">
        <ele>109</ele>
        <time>2014-07-24T07:25:46Z</time>
      </trkpt>
      <trkpt lat="43.46211" lon="6.9009">
        <ele>103</ele>
        <time>2014-07-24T07:26:11Z</time>
      </trkpt>
      <trkpt lat="43.46211" lon="6.90075">
        <ele>102</ele>
        <time>2014-07-24T07:26:19Z</time>
      </trkpt>
      <trkpt lat="43.4621" lon="6.90062">
        <ele>102</ele>
        <time>2014-07-24T07:26:26Z</time>
      </trkpt>
      <trkpt lat="43.46209" lon="6.9001">
        <ele>100</ele>
        <time>2014-07-24T07:26:54Z</time>
      </trkpt>
      <trkpt lat="43.46205" lon="6.89997">
        <ele>101</ele>
        <time>2014-07-24T07:27:00Z</time>
      </trkpt>
      <trkpt lat="43.46202" lon="6.89971">
        <ele>99</ele>
        <time>2014-07-24T07:27:16Z</time>
      </trkpt>
      <trkpt lat="43.46194" lon="6.89947">
        <ele>100</ele>
        <time>2014-07-24T07:27:30Z</time>
      </trkpt>
      <trkpt lat="43.4619" lon="6.89934">
        <ele>100</ele>
        <time>2014-07-24T07:27:38Z</time>
      </trkpt>
      <trkpt lat="43.46188" lon="6.8992">
        <ele>98</ele>
        <time>2014-07-24T07:27:47Z</time>
      </trkpt>
      <trkpt lat="43.46187" lon="6.89908">
        <ele>97</ele>
        <time>2014-07-24T07:27:53Z</time>
      </trkpt>
      <trkpt lat="43.46184" lon="6.89894">
        <ele>98</ele>
        <time>2014-07-24T07:28:00Z</time>
      </trkpt>
      <trkpt lat="43.46166" lon="6.89882">
        <ele>98</ele>
        <time>2014-07-24T07:28:14Z</time>
      </trkpt>
      <trkpt lat="43.46158" lon="6.89873">
        <ele>97</ele>
        <time>2014-07-24T07:28:22Z</time>
      </trkpt>
      <trkpt lat="43.46151" lon="6.89847">
        <ele>93</ele>
        <time>2014-07-24T07:28:38Z</time>
      </trkpt>
      <trkpt lat="43.46152" lon="6.89821">
        <ele>93</ele>
        <time>2014-07-24T07:28:52Z</time>
      </trkpt>
      <trkpt lat="43.46155" lon="6.89808">
        <ele>93</ele>
        <time>2014-07-24T07:29:01Z</time>
      </trkpt>
      <trkpt lat="43.46151" lon="6.89782">
        <ele>94</ele>
        <time>2014-07-24T07:29:15Z</time>
      </trkpt>
      <trkpt lat="43.46149" lon="6.8977">
        <ele>94</ele>
        <time>2014-07-24T07:29:22Z</time>
      </trkpt>
      <trkpt lat="43.4614" lon="6.89747">
        <ele>92</ele>
        <time>2014-07-24T07:29:36Z</time>
      </trkpt>
      <trkpt lat="43.46115" lon="6.89726">
        <ele>89</ele>
        <time>2014-07-24T07:29:59Z</time>
      </trkpt>
      <trkpt lat="43.46109" lon="6.89717">
        <ele>83</ele>
        <time>2014-07-24T07:30:09Z</time>
      </trkpt>
      <trkpt lat="43.46104" lon="6.89704">
        <ele>82</ele>
        <time>2014-07-24T07:30:16Z</time>
      </trkpt>
      <trkpt lat="43.46099" lon="6.89693">
        <ele>82</ele>
        <time>2014-07-24T07:30:22Z</time>
      </trkpt>
      <trkpt lat="43.46096" lon="6.89682">
        <ele>82</ele>
        <time>2014-07-24T07:30:27Z</time>
      </trkpt>
      <trkpt lat="43.4609" lon="6.89657">
        <ele>81</ele>
        <time>2014-07-24T07:30:41Z</time>
      </trkpt>
      <trkpt lat="43.46088" lon="6.89644">
        <ele>82</ele>
        <time>2014-07-24T07:30:48Z</time>
      </trkpt>
      <trkpt lat="43.46086" lon="6.89631">
        <ele>82</ele>
        <time>2014-07-24T07:30:56Z</time>
      </trkpt>
      <trkpt lat="43.46086" lon="6.89618">
        <ele>84</ele>
        <time>2014-07-24T07:31:03Z</time>
      </trkpt>
      <trkpt lat="43.46086" lon="6.89605">
        <ele>84</ele>
        <time>2014-07-24T07:31:10Z</time>
      </trkpt>
      <trkpt lat="43.4608" lon="6.89567">
        <ele>81</ele>
        <time>2014-07-24T07:31:30Z</time>
      </trkpt>
      <trkpt lat="43.46077" lon="6.89553">
        <ele>80</ele>
        <time>2014-07-24T07:31:37Z</time>
      </trkpt>
      <trkpt lat="43.46076" lon="6.8954">
        <ele>81</ele>
        <time>2014-07-24T07:31:44Z</time>
      </trkpt>
      <trkpt lat="43.46078" lon="6.89528">
        <ele>81</ele>
        <time>2014-07-24T07:31:51Z</time>
      </trkpt>
      <trkpt lat="43.46075" lon="6.89515">
        <ele>81</ele>
        <time>2014-07-24T07:31:58Z</time>
      </trkpt>
      <trkpt lat="43.46062" lon="6.89452">
        <ele>78</ele>
        <time>2014-07-24T07:32:34Z</time>
      </trkpt>
      <trkpt lat="43.46062" lon="6.89424">
        <ele>76</ele>
        <time>2014-07-24T07:32:48Z</time>
      </trkpt>
      <trkpt lat="43.4607" lon="6.89416">
        <ele>77</ele>
        <time>2014-07-24T07:32:53Z</time>
      </trkpt>
      <trkpt lat="43.46075" lon="6.89406">
        <ele>79</ele>
        <time>2014-07-24T07:33:00Z</time>
      </trkpt>
      <trkpt lat="43.4607" lon="6.89394">
        <ele>80</ele>
        <time>2014-07-24T07:33:08Z</time>
      </trkpt>
      <trkpt lat="43.46061" lon="6.89389">
        <ele>79</ele>
        <time>2014-07-24T07:33:15Z</time>
      </trkpt>
      <trkpt lat="43.46058" lon="6.89377">
        <ele>78</ele>
        <time>2014-07-24T07:33:23Z</time>
      </trkpt>
      <trkpt lat="43.46058" lon="6.89349">
        <ele>81</ele>
        <time>2014-07-24T07:33:36Z</time>
      </trkpt>
      <trkpt lat="43.46064" lon="6.89324">
        <ele>81</ele>
        <time>2014-07-24T07:33:51Z</time>
      </trkpt>
      <trkpt lat="43.46085" lon="6.89297">
        <ele>81</ele>
        <time>2014-07-24T07:34:09Z</time>
      </trkpt>
      <trkpt lat="43.46094" lon="6.89294">
        <ele>82</ele>
        <time>2014-07-24T07:34:15Z</time>
      </trkpt>
      <trkpt lat="43.46113" lon="6.89292">
        <ele>84</ele>
        <time>2014-07-24T07:34:30Z</time>
      </trkpt>
      <trkpt lat="43.46119" lon="6.89281">
        <ele>85</ele>
        <time>2014-07-24T07:34:36Z</time>
      </trkpt>
      <trkpt lat="43.46111" lon="6.89275">
        <ele>84</ele>
        <time>2014-07-24T07:34:47Z</time>
      </trkpt>
      <trkpt lat="43.46088" lon="6.89252">
        <ele>77</ele>
        <time>2014-07-24T07:35:09Z</time>
      </trkpt>
      <trkpt lat="43.46086" lon="6.8924">
        <ele>76</ele>
        <time>2014-07-24T07:35:14Z</time>
      </trkpt>
      <trkpt lat="43.4609" lon="6.89229">
        <ele>76</ele>
        <time>2014-07-24T07:35:19Z</time>
      </trkpt>
      <trkpt lat="43.46095" lon="6.89203">
        <ele>77</ele>
        <time>2014-07-24T07:35:32Z</time>
      </trkpt>
      <trkpt lat="43.46087" lon="6.89179">
        <ele>78</ele>
        <time>2014-07-24T07:35:44Z</time>
      </trkpt>
      <trkpt lat="43.46088" lon="6.89166">
        <ele>77</ele>
        <time>2014-07-24T07:35:51Z</time>
      </trkpt>
      <trkpt lat="43.46097" lon="6.8913">
        <ele>79</ele>
        <time>2014-07-24T07:36:12Z</time>
      </trkpt>
      <trkpt lat="43.46102" lon="6.89119">
        <ele>79</ele>
        <time>2014-07-24T07:36:18Z</time>
      </trkpt>
      <trkpt lat="43.46109" lon="6.89092">
        <ele>80</ele>
        <time>2014-07-24T07:36:32Z</time>
      </trkpt>
      <trkpt lat="43.46113" lon="6.8908">
        <ele>78</ele>
        <time>2014-07-24T07:36:39Z</time>
      </trkpt>
      <trkpt lat="43.46123" lon="6.89058">
        <ele>77</ele>
        <time>2014-07-24T07:36:54Z</time>
      </trkpt>
      <trkpt lat="43.46118" lon="6.89047">
        <ele>77</ele>
        <time>2014-07-24T07:37:00Z</time>
      </trkpt>
      <trkpt lat="43.46102" lon="6.89034">
        <ele>78</ele>
        <time>2014-07-24T07:37:13Z</time>
      </trkpt>
      <trkpt lat="43.46092" lon="6.89012">
        <ele>77</ele>
        <time>2014-07-24T07:37:27Z</time>
      </trkpt>
      <trkpt lat="43.46085" lon="6.88988">
        <ele>75</ele>
        <time>2014-07-24T07:37:41Z</time>
      </trkpt>
      <trkpt lat="43.46081" lon="6.88967">
        <ele>76</ele>
        <time>2014-07-24T07:37:52Z</time>
      </trkpt>
      <trkpt lat="43.46081" lon="6.8896">
        <ele>76</ele>
        <time>2014-07-24T07:37:55Z</time>
      </trkpt>
      <trkpt lat="43.4608" lon="6.88954">
        <ele>76</ele>
        <time>2014-07-24T07:37:58Z</time>
      </trkpt>
      <trkpt lat="43.4608" lon="6.88946">
        <ele>76</ele>
        <time>2014-07-24T07:38:02Z</time>
      </trkpt>
      <trkpt lat="43.4608" lon="6.8892">
        <ele>78</ele>
        <time>2014-07-24T07:38:16Z</time>
      </trkpt>
      <trkpt lat="43.46077" lon="6.88914">
        <ele>78</ele>
        <time>2014-07-24T07:38:20Z</time>
      </trkpt>
      <trkpt lat="43.46062" lon="6.88886">
        <ele>73</ele>
        <time>2014-07-24T07:38:40Z</time>
      </trkpt>
      <trkpt lat="43.4606" lon="6.88872">
        <ele>73</ele>
        <time>2014-07-24T07:38:47Z</time>
      </trkpt>
      <trkpt lat="43.46058" lon="6.88867">
        <ele>73</ele>
        <time>2014-07-24T07:38:50Z</time>
      </trkpt>
      <trkpt lat="43.46055" lon="6.88862">
        <ele>74</ele>
        <time>2014-07-24T07:38:53Z</time>
      </trkpt>
      <trkpt lat="43.46045" lon="6.88844">
        <ele>73</ele>
        <time>2014-07-24T07:39:05Z</time>
      </trkpt>
      <trkpt lat="43.46043" lon="6.88837">
        <ele>73</ele>
        <time>2014-07-24T07:39:08Z</time>
      </trkpt>
      <trkpt lat="43.46036" lon="6.88828">
        <ele>73</ele>
        <time>2014-07-24T07:39:14Z</time>
      </trkpt>
      <trkpt lat="43.46032" lon="6.88826">
        <ele>73</ele>
        <time>2014-07-24T07:39:17Z</time>
      </trkpt>
      <trkpt lat="43.46025" lon="6.88817">
        <ele>73</ele>
        <time>2014-07-24T07:39:25Z</time>
      </trkpt>
      <trkpt lat="43.46023" lon="6.8881">
        <ele>72</ele>
        <time>2014-07-24T07:39:30Z</time>
      </trkpt>
      <trkpt lat="43.46018" lon="6.8879">
        <ele>72</ele>
        <time>2014-07-24T07:39:41Z</time>
      </trkpt>
      <trkpt lat="43.46019" lon="6.88766">
        <ele>70</ele>
        <time>2014-07-24T07:39:53Z</time>
      </trkpt>
      <trkpt lat="43.46019" lon="6.88759">
        <ele>70</ele>
        <time>2014-07-24T07:39:57Z</time>
      </trkpt>
      <trkpt lat="43.46019" lon="6.88751">
        <ele>71</ele>
        <time>2014-07-24T07:40:01Z</time>
      </trkpt>
      <trkpt lat="43.46017" lon="6.88736">
        <ele>71</ele>
        <time>2014-07-24T07:40:09Z</time>
      </trkpt>
      <trkpt lat="43.46015" lon="6.88722">
        <ele>73</ele>
        <time>2014-07-24T07:40:17Z</time>
      </trkpt>
      <trkpt lat="43.46014" lon="6.88715">
        <ele>73</ele>
        <time>2014-07-24T07:40:21Z</time>
      </trkpt>
      <trkpt lat="43.46013" lon="6.88708">
        <ele>74</ele>
        <time>2014-07-24T07:40:25Z</time>
      </trkpt>
      <trkpt lat="43.46013" lon="6.88701">
        <ele>73</ele>
        <time>2014-07-24T07:40:29Z</time>
      </trkpt>
      <trkpt lat="43.46011" lon="6.88686">
        <ele>71</ele>
        <time>2014-07-24T07:40:37Z</time>
      </trkpt>
      <trkpt lat="43.46009" lon="6.88679">
        <ele>71</ele>
        <time>2014-07-24T07:40:41Z</time>
      </trkpt>
      <trkpt lat="43.46007" lon="6.88666">
        <ele>72</ele>
        <time>2014-07-24T07:40:48Z</time>
      </trkpt>
      <trkpt lat="43.46001" lon="6.88641">
        <ele>72</ele>
        <time>2014-07-24T07:41:03Z</time>
      </trkpt>
      <trkpt lat="43.45994" lon="6.88616">
        <ele>73</ele>
        <time>2014-07-24T07:41:19Z</time>
      </trkpt>
      <trkpt lat="43.4599" lon="6.88595">
        <ele>76</ele>
        <time>2014-07-24T07:41:31Z</time>
      </trkpt>
      <trkpt lat="43.45992" lon="6.8858">
        <ele>78</ele>
        <time>2014-07-24T07:41:39Z</time>
      </trkpt>
      <trkpt lat="43.45992" lon="6.88572">
        <ele>77</ele>
        <time>2014-07-24T07:41:43Z</time>
      </trkpt>
      <trkpt lat="43.45991" lon="6.88565">
        <ele>78</ele>
        <time>2014-07-24T07:41:47Z</time>
      </trkpt>
      <trkpt lat="43.45989" lon="6.88558">
        <ele>79</ele>
        <time>2014-07-24T07:41:51Z</time>
      </trkpt>
      <trkpt lat="43.45988" lon="6.88544">
        <ele>79</ele>
        <time>2014-07-24T07:41:59Z</time>
      </trkpt>
      <trkpt lat="43.45986" lon="6.88532">
        <ele>80</ele>
        <time>2014-07-24T07:42:05Z</time>
      </trkpt>
      <trkpt lat="43.45986" lon="6.88499">
        <ele>78</ele>
        <time>2014-07-24T07:42:21Z</time>
      </trkpt>
      <trkpt lat="43.45994" lon="6.88487">
        <ele>79</ele>
        <time>2014-07-24T07:42:29Z</time>
      </trkpt>
      <trkpt lat="43.45999" lon="6.88483">
        <ele>79</ele>
        <time>2014-07-24T07:42:33Z</time>
      </trkpt>
      <trkpt lat="43.46002" lon="6.88485">
        <ele>79</ele>
        <time>2014-07-24T07:42:45Z</time>
      </trkpt>
      <trkpt lat="43.46004" lon="6.8848">
        <ele>79</ele>
        <time>2014-07-24T07:43:17Z</time>
      </trkpt>
      <trkpt lat="43.46017" lon="6.88484">
        <ele>76</ele>
        <time>2014-07-24T07:45:02Z</time>
      </trkpt>
      <trkpt lat="43.46033" lon="6.88495">
        <ele>75</ele>
        <time>2014-07-24T07:45:20Z</time>
      </trkpt>
      <trkpt lat="43.46042" lon="6.88498">
        <ele>75</ele>
        <time>2014-07-24T07:45:28Z</time>
      </trkpt>
      <trkpt lat="43.46061" lon="6.88503">
        <ele>74</ele>
        <time>2014-07-24T07:45:45Z</time>
      </trkpt>
      <trkpt lat="43.4607" lon="6.88504">
        <ele>74</ele>
        <time>2014-07-24T07:45:52Z</time>
      </trkpt>
      <trkpt lat="43.46116" lon="6.88522">
        <ele>70</ele>
        <time>2014-07-24T07:46:32Z</time>
      </trkpt>
      <trkpt lat="43.46154" lon="6.8853">
        <ele>66</ele>
        <time>2014-07-24T07:47:05Z</time>
      </trkpt>
      <trkpt lat="43.46163" lon="6.88536">
        <ele>67</ele>
        <time>2014-07-24T07:47:13Z</time>
      </trkpt>
      <trkpt lat="43.46182" lon="6.88542">
        <ele>70</ele>
        <time>2014-07-24T07:47:29Z</time>
      </trkpt>
      <trkpt lat="43.46189" lon="6.88536">
        <ele>71</ele>
        <time>2014-07-24T07:47:47Z</time>
      </trkpt>
      <trkpt lat="43.4618" lon="6.88528">
        <ele>70</ele>
        <time>2014-07-24T07:47:55Z</time>
      </trkpt>
      <trkpt lat="43.46163" lon="6.88513">
        <ele>69</ele>
        <time>2014-07-24T07:48:09Z</time>
      </trkpt>
      <trkpt lat="43.46133" lon="6.88479">
        <ele>59</ele>
        <time>2014-07-24T07:48:43Z</time>
      </trkpt>
      <trkpt lat="43.46125" lon="6.8847">
        <ele>58</ele>
        <time>2014-07-24T07:48:52Z</time>
      </trkpt>
      <trkpt lat="43.46117" lon="6.88463">
        <ele>58</ele>
        <time>2014-07-24T07:48:59Z</time>
      </trkpt>
      <trkpt lat="43.46101" lon="6.88447">
        <ele>61</ele>
        <time>2014-07-24T07:49:15Z</time>
      </trkpt>
      <trkpt lat="43.4609" lon="6.88447">
        <ele>61</ele>
        <time>2014-07-24T07:49:22Z</time>
      </trkpt>
      <trkpt lat="43.46066" lon="6.88424">
        <ele>61</ele>
        <time>2014-07-24T07:49:43Z</time>
      </trkpt>
      <trkpt lat="43.46049" lon="6.88393">
        <ele>63</ele>
        <time>2014-07-24T07:50:04Z</time>
      </trkpt>
      <trkpt lat="43.4604" lon="6.88387">
        <ele>65</ele>
        <time>2014-07-24T07:50:14Z</time>
      </trkpt>
      <trkpt lat="43.45993" lon="6.88368">
        <ele>66</ele>
        <time>2014-07-24T07:50:48Z</time>
      </trkpt>
      <trkpt lat="43.45985" lon="6.8836">
        <ele>65</ele>
        <time>2014-07-24T07:50:56Z</time>
      </trkpt>
      <trkpt lat="43.45982" lon="6.88349">
        <ele>66</ele>
        <time>2014-07-24T07:51:03Z</time>
      </trkpt>
      <trkpt lat="43.45983" lon="6.88342">
        <ele>67</ele>
        <time>2014-07-24T07:51:08Z</time>
      </trkpt>
      <trkpt lat="43.45985" lon="6.88336">
        <ele>66</ele>
        <time>2014-07-24T07:51:12Z</time>
      </trkpt>
      <trkpt lat="43.45986" lon="6.88329">
        <ele>66</ele>
        <time>2014-07-24T07:51:16Z</time>
      </trkpt>
      <trkpt lat="43.4599" lon="6.88302">
        <ele>65</ele>
        <time>2014-07-24T07:51:37Z</time>
      </trkpt>
      <trkpt lat="43.4599" lon="6.88295">
        <ele>64</ele>
        <time>2014-07-24T07:51:41Z</time>
      </trkpt>
      <trkpt lat="43.45987" lon="6.88295">
        <ele>65</ele>
        <time>2014-07-24T07:52:04Z</time>
      </trkpt>
      <trkpt lat="43.45987" lon="6.88288">
        <ele>68</ele>
        <time>2014-07-24T07:53:14Z</time>
      </trkpt>
      <trkpt lat="43.45996" lon="6.88227">
        <ele>60</ele>
        <time>2014-07-24T07:53:47Z</time>
      </trkpt>
      <trkpt lat="43.45998" lon="6.88219">
        <ele>59</ele>
        <time>2014-07-24T07:53:51Z</time>
      </trkpt>
      <trkpt lat="43.45992" lon="6.88206">
        <ele>58</ele>
        <time>2014-07-24T07:53:59Z</time>
      </trkpt>
      <trkpt lat="43.4599" lon="6.88199">
        <ele>56</ele>
        <time>2014-07-24T07:54:03Z</time>
      </trkpt>
      <trkpt lat="43.45987" lon="6.88194">
        <ele>56</ele>
        <time>2014-07-24T07:54:07Z</time>
      </trkpt>
      <trkpt lat="43.45988" lon="6.88187">
        <ele>56</ele>
        <time>2014-07-24T07:54:11Z</time>
      </trkpt>
      <trkpt lat="43.45994" lon="6.88176">
        <ele>56</ele>
        <time>2014-07-24T07:54:17Z</time>
      </trkpt>
      <trkpt lat="43.45994" lon="6.88161">
        <ele>56</ele>
        <time>2014-07-24T07:54:25Z</time>
      </trkpt>
      <trkpt lat="43.45994" lon="6.88155">
        <ele>57</ele>
        <time>2014-07-24T07:54:29Z</time>
      </trkpt>
      <trkpt lat="43.45995" lon="6.88142">
        <ele>56</ele>
        <time>2014-07-24T07:54:36Z</time>
      </trkpt>
      <trkpt lat="43.45992" lon="6.88123">
        <ele>55</ele>
        <time>2014-07-24T07:54:48Z</time>
      </trkpt>
      <trkpt lat="43.45992" lon="6.88115">
        <ele>55</ele>
        <time>2014-07-24T07:54:52Z</time>
      </trkpt>
      <trkpt lat="43.45993" lon="6.88109">
        <ele>56</ele>
        <time>2014-07-24T07:54:55Z</time>
      </trkpt>
      <trkpt lat="43.45992" lon="6.88102">
        <ele>55</ele>
        <time>2014-07-24T07:54:58Z</time>
      </trkpt>
      <trkpt lat="43.4599" lon="6.88096">
        <ele>55</ele>
        <time>2014-07-24T07:55:02Z</time>
      </trkpt>
      <trkpt lat="43.45989" lon="6.88081">
        <ele>54</ele>
        <time>2014-07-24T07:55:10Z</time>
      </trkpt>
      <trkpt lat="43.45991" lon="6.88075">
        <ele>51</ele>
        <time>2014-07-24T07:55:14Z</time>
      </trkpt>
      <trkpt lat="43.45992" lon="6.88068">
        <ele>51</ele>
        <time>2014-07-24T07:55:18Z</time>
      </trkpt>
      <trkpt lat="43.45993" lon="6.88062">
        <ele>51</ele>
        <time>2014-07-24T07:55:22Z</time>
      </trkpt>
      <trkpt lat="43.45997" lon="6.88048">
        <ele>49</ele>
        <time>2014-07-24T07:55:30Z</time>
      </trkpt>
      <trkpt lat="43.45995" lon="6.88033">
        <ele>48</ele>
        <time>2014-07-24T07:55:39Z</time>
      </trkpt>
      <trkpt lat="43.45995" lon="6.88026">
        <ele>47</ele>
        <time>2014-07-24T07:55:43Z</time>
      </trkpt>
      <trkpt lat="43.45995" lon="6.88019">
        <ele>48</ele>
        <time>2014-07-24T07:55:47Z</time>
      </trkpt>
      <trkpt lat="43.45996" lon="6.87991">
        <ele>41</ele>
        <time>2014-07-24T07:56:03Z</time>
      </trkpt>
      <trkpt lat="43.46" lon="6.87986">
        <ele>39</ele>
        <time>2014-07-24T07:56:07Z</time>
      </trkpt>
      <trkpt lat="43.46005" lon="6.87984">
        <ele>39</ele>
        <time>2014-07-24T07:56:12Z</time>
      </trkpt>
      <trkpt lat="43.4601" lon="6.87983">
        <ele>40</ele>
        <time>2014-07-24T07:56:16Z</time>
      </trkpt>
      <trkpt lat="43.46016" lon="6.87983">
        <ele>39</ele>
        <time>2014-07-24T07:56:20Z</time>
      </trkpt>
      <trkpt lat="43.46042" lon="6.87987">
        <ele>41</ele>
        <time>2014-07-24T07:56:43Z</time>
      </trkpt>
      <trkpt lat="43.46052" lon="6.87986">
        <ele>39</ele>
        <time>2014-07-24T07:56:50Z</time>
      </trkpt>
      <trkpt lat="43.46061" lon="6.87978">
        <ele>39</ele>
        <time>2014-07-24T07:56:58Z</time>
      </trkpt>
      <trkpt lat="43.46071" lon="6.87978">
        <ele>39</ele>
        <time>2014-07-24T07:57:05Z</time>
      </trkpt>
      <trkpt lat="43.4608" lon="6.87977">
        <ele>39</ele>
        <time>2014-07-24T07:57:13Z</time>
      </trkpt>
      <trkpt lat="43.46089" lon="6.8797">
        <ele>39</ele>
        <time>2014-07-24T07:57:20Z</time>
      </trkpt>
      <trkpt lat="43.46097" lon="6.87964">
        <ele>38</ele>
        <time>2014-07-24T07:57:27Z</time>
      </trkpt>
      <trkpt lat="43.4611" lon="6.8794">
        <ele>36</ele>
        <time>2014-07-24T07:58:01Z</time>
      </trkpt>
      <trkpt lat="43.46116" lon="6.87926">
        <ele>34</ele>
        <time>2014-07-24T07:58:26Z</time>
      </trkpt>
      <trkpt lat="43.46122" lon="6.87915">
        <ele>35</ele>
        <time>2014-07-24T07:58:33Z</time>
      </trkpt>
      <trkpt lat="43.46125" lon="6.87902">
        <ele>35</ele>
        <time>2014-07-24T07:58:41Z</time>
      </trkpt>
      <trkpt lat="43.46132" lon="6.87894">
        <ele>35</ele>
        <time>2014-07-24T07:58:46Z</time>
      </trkpt>
      <trkpt lat="43.46138" lon="6.87882">
        <ele>35</ele>
        <time>2014-07-24T07:58:54Z</time>
      </trkpt>
      <trkpt lat="43.46141" lon="6.87862">
        <ele>30</ele>
        <time>2014-07-24T07:59:16Z</time>
      </trkpt>
      <trkpt lat="43.46149" lon="6.87859">
        <ele>28</ele>
        <time>2014-07-24T07:59:37Z</time>
      </trkpt>
      <trkpt lat="43.46151" lon="6.87868">
        <ele>30</ele>
        <time>2014-07-24T08:00:17Z</time>
      </trkpt>
      <trkpt lat="43.46151" lon="6.87873">
        <ele>35</ele>
        <time>2014-07-24T08:01:07Z</time>
      </trkpt>
      <trkpt lat="43.46148" lon="6.87879">
        <ele>34</ele>
        <time>2014-07-24T08:01:14Z</time>
      </trkpt>
      <trkpt lat="43.46142" lon="6.8789">
        <ele>34</ele>
        <time>2014-07-24T08:01:26Z</time>
      </trkpt>
      <trkpt lat="43.46143" lon="6.879">
        <ele>35</ele>
        <time>2014-07-24T08:01:32Z</time>
      </trkpt>
      <trkpt lat="43.4614" lon="6.87905">
        <ele>36</ele>
        <time>2014-07-24T08:01:39Z</time>
      </trkpt>
      <trkpt lat="43.46138" lon="6.87911">
        <ele>36</ele>
        <time>2014-07-24T08:01:44Z</time>
      </trkpt>
      <trkpt lat="43.46136" lon="6.87916">
        <ele>37</ele>
        <time>2014-07-24T08:01:50Z</time>
      </trkpt>
      <trkpt lat="43.46131" lon="6.87944">
        <ele>44</ele>
        <time>2014-07-24T08:02:13Z</time>
      </trkpt>
      <trkpt lat="43.46122" lon="6.8796">
        <ele>47</ele>
        <time>2014-07-24T08:02:30Z</time>
      </trkpt>
      <trkpt lat="43.46121" lon="6.87966">
        <ele>46</ele>
        <time>2014-07-24T08:02:37Z</time>
      </trkpt>
      <trkpt lat="43.46119" lon="6.87973">
        <ele>47</ele>
        <time>2014-07-24T08:02:46Z</time>
      </trkpt>
      <trkpt lat="43.46122" lon="6.87979">
        <ele>46</ele>
        <time>2014-07-24T08:02:50Z</time>
      </trkpt>
      <trkpt lat="43.4612" lon="6.87985">
        <ele>46</ele>
        <time>2014-07-24T08:02:55Z</time>
      </trkpt>
      <trkpt lat="43.46116" lon="6.87987">
        <ele>46</ele>
        <time>2014-07-24T08:03:00Z</time>
      </trkpt>
      <trkpt lat="43.46106" lon="6.87988">
        <ele>47</ele>
        <time>2014-07-24T08:03:11Z</time>
      </trkpt>
      <trkpt lat="43.46104" lon="6.87993">
        <ele>48</ele>
        <time>2014-07-24T08:03:16Z</time>
      </trkpt>
      <trkpt lat="43.461" lon="6.87997">
        <ele>50</ele>
        <time>2014-07-24T08:03:23Z</time>
      </trkpt>
      <trkpt lat="43.46096" lon="6.87995">
        <ele>53</ele>
        <time>2014-07-24T08:03:33Z</time>
      </trkpt>
      <trkpt lat="43.46095" lon="6.87991">
        <ele>57</ele>
        <time>2014-07-24T08:04:33Z</time>
      </trkpt>
      <trkpt lat="43.46089" lon="6.87999">
        <ele>57</ele>
        <time>2014-07-24T08:04:41Z</time>
      </trkpt>
      <trkpt lat="43.46082" lon="6.88007">
        <ele>60</ele>
        <time>2014-07-24T08:04:49Z</time>
      </trkpt>
      <trkpt lat="43.46085" lon="6.88011">
        <ele>63</ele>
        <time>2014-07-24T08:05:03Z</time>
      </trkpt>
      <trkpt lat="43.4609" lon="6.88011">
        <ele>64</ele>
        <time>2014-07-24T08:05:11Z</time>
      </trkpt>
      <trkpt lat="43.46094" lon="6.88015">
        <ele>65</ele>
        <time>2014-07-24T08:05:17Z</time>
      </trkpt>
      <trkpt lat="43.46098" lon="6.88013">
        <ele>66</ele>
        <time>2014-07-24T08:05:23Z</time>
      </trkpt>
      <trkpt lat="43.46108" lon="6.88015">
        <ele>68</ele>
        <time>2014-07-24T08:05:31Z</time>
      </trkpt>
      <trkpt lat="43.46112" lon="6.88014">
        <ele>68</ele>
        <time>2014-07-24T08:05:38Z</time>
      </trkpt>
      <trkpt lat="43.46117" lon="6.88016">
        <ele>69</ele>
        <time>2014-07-24T08:05:45Z</time>
      </trkpt>
      <trkpt lat="43.46129" lon="6.88012">
        <ele>71</ele>
        <time>2014-07-24T08:06:04Z</time>
      </trkpt>
      <trkpt lat="43.46136" lon="6.88004">
        <ele>73</ele>
        <time>2014-07-24T08:06:11Z</time>
      </trkpt>
      <trkpt lat="43.46143" lon="6.87996">
        <ele>74</ele>
        <time>2014-07-24T08:06:20Z</time>
      </trkpt>
      <trkpt lat="43.46151" lon="6.87989">
        <ele>72</ele>
        <time>2014-07-24T08:06:30Z</time>
      </trkpt>
      <trkpt lat="43.46161" lon="6.87986">
        <ele>72</ele>
        <time>2014-07-24T08:06:42Z</time>
      </trkpt>
      <trkpt lat="43.46176" lon="6.87973">
        <ele>75</ele>
        <time>2014-07-24T08:07:04Z</time>
      </trkpt>
      <trkpt lat="43.46186" lon="6.87969">
        <ele>77</ele>
        <time>2014-07-24T08:07:15Z</time>
      </trkpt>
      <trkpt lat="43.46195" lon="6.87966">
        <ele>77</ele>
        <time>2014-07-24T08:07:25Z</time>
      </trkpt>
      <trkpt lat="43.4621" lon="6.8796">
        <ele>84</ele>
        <time>2014-07-24T08:07:53Z</time>
      </trkpt>
      <trkpt lat="43.46209" lon="6.87956">
        <ele>89</ele>
        <time>2014-07-24T08:08:33Z</time>
      </trkpt>
      <trkpt lat="43.46219" lon="6.87947">
        <ele>90</ele>
        <time>2014-07-24T08:10:14Z</time>
      </trkpt>
      <trkpt lat="43.46247" lon="6.87942">
        <ele>98</ele>
        <time>2014-07-24T08:10:47Z</time>
      </trkpt>
      <trkpt lat="43.46273" lon="6.87929">
        <ele>105</ele>
        <time>2014-07-24T08:11:27Z</time>
      </trkpt>
      <trkpt lat="43.46284" lon="6.87924">
        <ele>108</ele>
        <time>2014-07-24T08:11:43Z</time>
      </trkpt>
      <trkpt lat="43.46289" lon="6.87924">
        <ele>108</ele>
        <time>2014-07-24T08:11:48Z</time>
      </trkpt>
      <trkpt lat="43.46293" lon="6.87922">
        <ele>108</ele>
        <time>2014-07-24T08:11:54Z</time>
      </trkpt>
      <trkpt lat="43.46306" lon="6.87912">
        <ele>111</ele>
        <time>2014-07-24T08:12:14Z</time>
      </trkpt>
      <trkpt lat="43.46311" lon="6.8791">
        <ele>111</ele>
        <time>2014-07-24T08:12:20Z</time>
      </trkpt>
      <trkpt lat="43.46328" lon="6.87901">
        <ele>118</ele>
        <time>2014-07-24T08:12:52Z</time>
      </trkpt>
      <trkpt lat="43.4633" lon="6.87898">
        <ele>121</ele>
        <time>2014-07-24T08:14:49Z</time>
      </trkpt>
      <trkpt lat="43.4634" lon="6.87895">
        <ele>124</ele>
        <time>2014-07-24T08:15:00Z</time>
      </trkpt>
      <trkpt lat="43.46346" lon="6.87897">
        <ele>126</ele>
        <time>2014-07-24T08:15:05Z</time>
      </trkpt>
      <trkpt lat="43.4635" lon="6.87893">
        <ele>127</ele>
        <time>2014-07-24T08:15:11Z</time>
      </trkpt>
      <trkpt lat="43.4636" lon="6.87893">
        <ele>129</ele>
        <time>2014-07-24T08:15:23Z</time>
      </trkpt>
      <trkpt lat="43.46365" lon="6.87891">
        <ele>129</ele>
        <time>2014-07-24T08:15:28Z</time>
      </trkpt>
      <trkpt lat="43.46369" lon="6.8789">
        <ele>128</ele>
        <time>2014-07-24T08:15:34Z</time>
      </trkpt>
      <trkpt lat="43.46379" lon="6.87888">
        <ele>129</ele>
        <time>2014-07-24T08:15:46Z</time>
      </trkpt>
      <trkpt lat="43.46388" lon="6.8789">
        <ele>133</ele>
        <time>2014-07-24T08:15:57Z</time>
      </trkpt>
      <trkpt lat="43.46397" lon="6.87892">
        <ele>134</ele>
        <time>2014-07-24T08:16:08Z</time>
      </trkpt>
      <trkpt lat="43.46404" lon="6.87901">
        <ele>134</ele>
        <time>2014-07-24T08:16:21Z</time>
      </trkpt>
      <trkpt lat="43.46407" lon="6.87905">
        <ele>136</ele>
        <time>2014-07-24T08:16:51Z</time>
      </trkpt>
      <trkpt lat="43.46415" lon="6.87917">
        <ele>138</ele>
        <time>2014-07-24T08:17:22Z</time>
      </trkpt>
      <trkpt lat="43.46418" lon="6.87921">
        <ele>141</ele>
        <time>2014-07-24T08:17:28Z</time>
      </trkpt>
      <trkpt lat="43.4642" lon="6.87928">
        <ele>142</ele>
        <time>2014-07-24T08:17:37Z</time>
      </trkpt>
      <trkpt lat="43.46422" lon="6.87934">
        <ele>142</ele>
        <time>2014-07-24T08:17:47Z</time>
      </trkpt>
      <trkpt lat="43.46428" lon="6.87945">
        <ele>141</ele>
        <time>2014-07-24T08:17:56Z</time>
      </trkpt>
      <trkpt lat="43.46433" lon="6.87956">
        <ele>141</ele>
        <time>2014-07-24T08:18:06Z</time>
      </trkpt>
      <trkpt lat="43.46437" lon="6.8797">
        <ele>144</ele>
        <time>2014-07-24T08:18:20Z</time>
      </trkpt>
      <trkpt lat="43.46436" lon="6.87977">
        <ele>146</ele>
        <time>2014-07-24T08:18:25Z</time>
      </trkpt>
      <trkpt lat="43.46443" lon="6.88">
        <ele>151</ele>
        <time>2014-07-24T08:18:52Z</time>
      </trkpt>
      <trkpt lat="43.46451" lon="6.88016">
        <ele>160</ele>
        <time>2014-07-24T08:20:48Z</time>
      </trkpt>
      <trkpt lat="43.46455" lon="6.88028">
        <ele>164</ele>
        <time>2014-07-24T08:20:59Z</time>
      </trkpt>
      <trkpt lat="43.46458" lon="6.8804">
        <ele>165</ele>
        <time>2014-07-24T08:21:12Z</time>
      </trkpt>
      <trkpt lat="43.46465" lon="6.88076">
        <ele>172</ele>
        <time>2014-07-24T08:21:50Z</time>
      </trkpt>
      <trkpt lat="43.46468" lon="6.88083">
        <ele>174</ele>
        <time>2014-07-24T08:21:57Z</time>
      </trkpt>
      <trkpt lat="43.46469" lon="6.88097">
        <ele>177</ele>
        <time>2014-07-24T08:22:10Z</time>
      </trkpt>
      <trkpt lat="43.4647" lon="6.88103">
        <ele>177</ele>
        <time>2014-07-24T08:22:17Z</time>
      </trkpt>
      <trkpt lat="43.46469" lon="6.88117">
        <ele>176</ele>
        <time>2014-07-24T08:22:29Z</time>
      </trkpt>
      <trkpt lat="43.46477" lon="6.88137">
        <ele>179</ele>
        <time>2014-07-24T08:23:15Z</time>
      </trkpt>
      <trkpt lat="43.46479" lon="6.8815">
        <ele>182</ele>
        <time>2014-07-24T08:23:27Z</time>
      </trkpt>
      <trkpt lat="43.46493" lon="6.88167">
        <ele>185</ele>
        <time>2014-07-24T08:23:49Z</time>
      </trkpt>
      <trkpt lat="43.46501" lon="6.88173">
        <ele>186</ele>
        <time>2014-07-24T08:24:00Z</time>
      </trkpt>
      <trkpt lat="43.46509" lon="6.88179">
        <ele>189</ele>
        <time>2014-07-24T08:24:12Z</time>
      </trkpt>
      <trkpt lat="43.46516" lon="6.88188">
        <ele>189</ele>
        <time>2014-07-24T08:24:28Z</time>
      </trkpt>
      <trkpt lat="43.46535" lon="6.88189">
        <ele>193</ele>
        <time>2014-07-24T08:24:53Z</time>
      </trkpt>
      <trkpt lat="43.4654" lon="6.88188">
        <ele>200</ele>
        <time>2014-07-24T08:25:57Z</time>
      </trkpt>
      <trkpt lat="43.46545" lon="6.88187">
        <ele>200</ele>
        <time>2014-07-24T08:26:03Z</time>
      </trkpt>
      <trkpt lat="43.4655" lon="6.88183">
        <ele>201</ele>
        <time>2014-07-24T08:26:08Z</time>
      </trkpt>
      <trkpt lat="43.46554" lon="6.88182">
        <ele>201</ele>
        <time>2014-07-24T08:26:12Z</time>
      </trkpt>
      <trkpt lat="43.46559" lon="6.88179">
        <ele>203</ele>
        <time>2014-07-24T08:26:17Z</time>
      </trkpt>
      <trkpt lat="43.46573" lon="6.8818">
        <ele>204</ele>
        <time>2014-07-24T08:26:31Z</time>
      </trkpt>
      <trkpt lat="43.46584" lon="6.88175">
        <ele>205</ele>
        <time>2014-07-24T08:26:49Z</time>
      </trkpt>
      <trkpt lat="43.4658" lon="6.88177">
        <ele>207</ele>
        <time>2014-07-24T08:26:57Z</time>
      </trkpt>
      <trkpt lat="43.46577" lon="6.88183">
        <ele>208</ele>
        <time>2014-07-24T08:27:04Z</time>
      </trkpt>
      <trkpt lat="43.4657" lon="6.88215">
        <ele>214</ele>
        <time>2014-07-24T08:27:37Z</time>
      </trkpt>
      <trkpt lat="43.46568" lon="6.88221">
        <ele>215</ele>
        <time>2014-07-24T08:27:44Z</time>
      </trkpt>
      <trkpt lat="43.46566" lon="6.88227">
        <ele>215</ele>
        <time>2014-07-24T08:27:49Z</time>
      </trkpt>
      <trkpt lat="43.46562" lon="6.88231">
        <ele>215</ele>
        <time>2014-07-24T08:27:54Z</time>
      </trkpt>
      <trkpt lat="43.46558" lon="6.88236">
        <ele>215</ele>
        <time>2014-07-24T08:28:01Z</time>
      </trkpt>
      <trkpt lat="43.46562" lon="6.88242">
        <ele>216</ele>
        <time>2014-07-24T08:28:50Z</time>
      </trkpt>
      <trkpt lat="43.4656" lon="6.88247">
        <ele>215</ele>
        <time>2014-07-24T08:28:57Z</time>
      </trkpt>
      <trkpt lat="43.46558" lon="6.88254">
        <ele>215</ele>
        <time>2014-07-24T08:29:02Z</time>
      </trkpt>
      <trkpt lat="43.46557" lon="6.88267">
        <ele>217</ele>
        <time>2014-07-24T08:29:11Z</time>
      </trkpt>
      <trkpt lat="43.46552" lon="6.8827">
        <ele>220</ele>
        <time>2014-07-24T08:29:18Z</time>
      </trkpt>
      <trkpt lat="43.46549" lon="6.88276">
        <ele>222</ele>
        <time>2014-07-24T08:29:25Z</time>
      </trkpt>
      <trkpt lat="43.4655" lon="6.88282">
        <ele>223</ele>
        <time>2014-07-24T08:29:29Z</time>
      </trkpt>
      <trkpt lat="43.46554" lon="6.88304">
        <ele>226</ele>
        <time>2014-07-24T08:29:43Z</time>
      </trkpt>
      <trkpt lat="43.46555" lon="6.88317">
        <ele>226</ele>
        <time>2014-07-24T08:29:56Z</time>
      </trkpt>
      <trkpt lat="43.46557" lon="6.88322">
        <ele>226</ele>
        <time>2014-07-24T08:30:02Z</time>
      </trkpt>
      <trkpt lat="43.46558" lon="6.88321">
        <ele>228</ele>
        <time>2014-07-24T08:31:06Z</time>
      </trkpt>
      <trkpt lat="43.46563" lon="6.8832">
        <ele>228</ele>
        <time>2014-07-24T08:31:10Z</time>
      </trkpt>
      <trkpt lat="43.46567" lon="6.88324">
        <ele>229</ele>
        <time>2014-07-24T08:31:14Z</time>
      </trkpt>
      <trkpt lat="43.46572" lon="6.88326">
        <ele>228</ele>
        <time>2014-07-24T08:31:19Z</time>
      </trkpt>
      <trkpt lat="43.46577" lon="6.88328">
        <ele>229</ele>
        <time>2014-07-24T08:31:25Z</time>
      </trkpt>
      <trkpt lat="43.4658" lon="6.88332">
        <ele>230</ele>
        <time>2014-07-24T08:31:30Z</time>
      </trkpt>
      <trkpt lat="43.46584" lon="6.88345">
        <ele>233</ele>
        <time>2014-07-24T08:31:38Z</time>
      </trkpt>
      <trkpt lat="43.46588" lon="6.88348">
        <ele>235</ele>
        <time>2014-07-24T08:31:43Z</time>
      </trkpt>
      <trkpt lat="43.46593" lon="6.88349">
        <ele>235</ele>
        <time>2014-07-24T08:31:47Z</time>
      </trkpt>
      <trkpt lat="43.46598" lon="6.8835">
        <ele>234</ele>
        <time>2014-07-24T08:31:52Z</time>
      </trkpt>
      <trkpt lat="43.46602" lon="6.88354">
        <ele>233</ele>
        <time>2014-07-24T08:31:58Z</time>
      </trkpt>
      <trkpt lat="43.46609" lon="6.88362">
        <ele>234</ele>
        <time>2014-07-24T08:32:09Z</time>
      </trkpt>
      <trkpt lat="43.46619" lon="6.88377">
        <ele>237</ele>
        <time>2014-07-24T08:32:25Z</time>
      </trkpt>
      <trkpt lat="43.46628" lon="6.8838">
        <ele>237</ele>
        <time>2014-07-24T08:32:33Z</time>
      </trkpt>
      <trkpt lat="43.46636" lon="6.88387">
        <ele>238</ele>
        <time>2014-07-24T08:32:45Z</time>
      </trkpt>
      <trkpt lat="43.46644" lon="6.88391">
        <ele>238</ele>
        <time>2014-07-24T08:32:56Z</time>
      </trkpt>
      <trkpt lat="43.46653" lon="6.88397">
        <ele>240</ele>
        <time>2014-07-24T08:33:07Z</time>
      </trkpt>
      <trkpt lat="43.46682" lon="6.88401">
        <ele>246</ele>
        <time>2014-07-24T08:33:39Z</time>
      </trkpt>
      <trkpt lat="43.46689" lon="6.88409">
        <ele>249</ele>
        <time>2014-07-24T08:33:49Z</time>
      </trkpt>
      <trkpt lat="43.46699" lon="6.88409">
        <ele>251</ele>
        <time>2014-07-24T08:33:59Z</time>
      </trkpt>
      <trkpt lat="43.46708" lon="6.88408">
        <ele>251</ele>
        <time>2014-07-24T08:34:08Z</time>
      </trkpt>
      <trkpt lat="43.46714" lon="6.88419">
        <ele>251</ele>
        <time>2014-07-24T08:34:20Z</time>
      </trkpt>
      <trkpt lat="43.46722" lon="6.88425">
        <ele>252</ele>
        <time>2014-07-24T08:34:34Z</time>
      </trkpt>
      <trkpt lat="43.46727" lon="6.88436">
        <ele>256</ele>
        <time>2014-07-24T08:34:44Z</time>
      </trkpt>
      <trkpt lat="43.46747" lon="6.88462">
        <ele>266</ele>
        <time>2014-07-24T08:35:16Z</time>
      </trkpt>
      <trkpt lat="43.46752" lon="6.88474">
        <ele>266</ele>
        <time>2014-07-24T08:35:25Z</time>
      </trkpt>
      <trkpt lat="43.46757" lon="6.88493">
        <ele>264</ele>
        <time>2014-07-24T08:35:38Z</time>
      </trkpt>
      <trkpt lat="43.46755" lon="6.885">
        <ele>265</ele>
        <time>2014-07-24T08:35:43Z</time>
      </trkpt>
      <trkpt lat="43.46753" lon="6.88513">
        <ele>265</ele>
        <time>2014-07-24T08:35:51Z</time>
      </trkpt>
      <trkpt lat="43.46753" lon="6.88525">
        <ele>267</ele>
        <time>2014-07-24T08:36:05Z</time>
      </trkpt>
      <trkpt lat="43.46753" lon="6.88522">
        <ele>268</ele>
        <time>2014-07-24T08:36:39Z</time>
      </trkpt>
      <trkpt lat="43.46749" lon="6.8856">
        <ele>270</ele>
        <time>2014-07-24T08:39:56Z</time>
      </trkpt>
      <trkpt lat="43.46746" lon="6.88565">
        <ele>270</ele>
        <time>2014-07-24T08:40:58Z</time>
      </trkpt>
      <trkpt lat="43.46743" lon="6.88571">
        <ele>271</ele>
        <time>2014-07-24T08:41:03Z</time>
      </trkpt>
      <trkpt lat="43.46739" lon="6.88575">
        <ele>271</ele>
        <time>2014-07-24T08:41:08Z</time>
      </trkpt>
      <trkpt lat="43.46738" lon="6.88582">
        <ele>271</ele>
        <time>2014-07-24T08:41:13Z</time>
      </trkpt>
      <trkpt lat="43.46736" lon="6.88589">
        <ele>271</ele>
        <time>2014-07-24T08:41:17Z</time>
      </trkpt>
      <trkpt lat="43.46734" lon="6.88595">
        <ele>271</ele>
        <time>2014-07-24T08:41:21Z</time>
      </trkpt>
      <trkpt lat="43.46731" lon="6.88601">
        <ele>271</ele>
        <time>2014-07-24T08:41:26Z</time>
      </trkpt>
      <trkpt lat="43.46728" lon="6.88607">
        <ele>271</ele>
        <time>2014-07-24T08:41:30Z</time>
      </trkpt>
      <trkpt lat="43.46716" lon="6.88629">
        <ele>272</ele>
        <time>2014-07-24T08:41:49Z</time>
      </trkpt>
      <trkpt lat="43.46709" lon="6.88638">
        <ele>271</ele>
        <time>2014-07-24T08:41:56Z</time>
      </trkpt>
      <trkpt lat="43.46706" lon="6.88643">
        <ele>271</ele>
        <time>2014-07-24T08:42:00Z</time>
      </trkpt>
      <trkpt lat="43.46702" lon="6.88647">
        <ele>271</ele>
        <time>2014-07-24T08:42:04Z</time>
      </trkpt>
      <trkpt lat="43.46687" lon="6.88652">
        <ele>271</ele>
        <time>2014-07-24T08:42:18Z</time>
      </trkpt>
      <trkpt lat="43.46671" lon="6.88666">
        <ele>274</ele>
        <time>2014-07-24T08:42:36Z</time>
      </trkpt>
      <trkpt lat="43.46666" lon="6.88668">
        <ele>274</ele>
        <time>2014-07-24T08:42:40Z</time>
      </trkpt>
      <trkpt lat="43.46656" lon="6.88675">
        <ele>273</ele>
        <time>2014-07-24T08:42:48Z</time>
      </trkpt>
      <trkpt lat="43.4664" lon="6.8869">
        <ele>273</ele>
        <time>2014-07-24T08:43:03Z</time>
      </trkpt>
      <trkpt lat="43.46635" lon="6.88692">
        <ele>275</ele>
        <time>2014-07-24T08:43:08Z</time>
      </trkpt>
      <trkpt lat="43.46624" lon="6.88715">
        <ele>274</ele>
        <time>2014-07-24T08:43:24Z</time>
      </trkpt>
      <trkpt lat="43.46621" lon="6.8873">
        <ele>272</ele>
        <time>2014-07-24T08:43:34Z</time>
      </trkpt>
      <trkpt lat="43.4662" lon="6.88737">
        <ele>273</ele>
        <time>2014-07-24T08:43:39Z</time>
      </trkpt>
      <trkpt lat="43.46619" lon="6.88743">
        <ele>273</ele>
        <time>2014-07-24T08:43:44Z</time>
      </trkpt>
      <trkpt lat="43.4661" lon="6.88759">
        <ele>274</ele>
        <time>2014-07-24T08:43:57Z</time>
      </trkpt>
      <trkpt lat="43.46606" lon="6.88772">
        <ele>272</ele>
        <time>2014-07-24T08:44:05Z</time>
      </trkpt>
      <trkpt lat="43.46602" lon="6.88776">
        <ele>272</ele>
        <time>2014-07-24T08:44:09Z</time>
      </trkpt>
      <trkpt lat="43.46596" lon="6.88779">
        <ele>272</ele>
        <time>2014-07-24T08:44:14Z</time>
      </trkpt>
      <trkpt lat="43.46594" lon="6.88785">
        <ele>272</ele>
        <time>2014-07-24T08:44:18Z</time>
      </trkpt>
      <trkpt lat="43.46581" lon="6.88801">
        <ele>276</ele>
        <time>2014-07-24T08:44:30Z</time>
      </trkpt>
      <trkpt lat="43.4658" lon="6.88807">
        <ele>276</ele>
        <time>2014-07-24T08:44:34Z</time>
      </trkpt>
      <trkpt lat="43.46576" lon="6.88813">
        <ele>276</ele>
        <time>2014-07-24T08:44:39Z</time>
      </trkpt>
      <trkpt lat="43.46553" lon="6.88853">
        <ele>269</ele>
        <time>2014-07-24T08:45:07Z</time>
      </trkpt>
      <trkpt lat="43.4655" lon="6.88858">
        <ele>270</ele>
        <time>2014-07-24T08:45:11Z</time>
      </trkpt>
      <trkpt lat="43.46547" lon="6.88863">
        <ele>271</ele>
        <time>2014-07-24T08:45:15Z</time>
      </trkpt>
      <trkpt lat="43.4654" lon="6.88875">
        <ele>272</ele>
        <time>2014-07-24T08:45:23Z</time>
      </trkpt>
      <trkpt lat="43.46532" lon="6.88894">
        <ele>270</ele>
        <time>2014-07-24T08:45:34Z</time>
      </trkpt>
      <trkpt lat="43.46528" lon="6.88897">
        <ele>270</ele>
        <time>2014-07-24T08:45:37Z</time>
      </trkpt>
      <trkpt lat="43.46515" lon="6.88907">
        <ele>272</ele>
        <time>2014-07-24T08:45:49Z</time>
      </trkpt>
      <trkpt lat="43.46489" lon="6.8895">
        <ele>272</ele>
        <time>2014-07-24T08:46:21Z</time>
      </trkpt>
      <trkpt lat="43.46488" lon="6.88964">
        <ele>274</ele>
        <time>2014-07-24T08:46:29Z</time>
      </trkpt>
      <trkpt lat="43.46487" lon="6.88978">
        <ele>274</ele>
        <time>2014-07-24T08:46:36Z</time>
      </trkpt>
      <trkpt lat="43.46483" lon="6.88991">
        <ele>276</ele>
        <time>2014-07-24T08:46:44Z</time>
      </trkpt>
      <trkpt lat="43.46483" lon="6.88999">
        <ele>277</ele>
        <time>2014-07-24T08:46:48Z</time>
      </trkpt>
      <trkpt lat="43.46484" lon="6.89007">
        <ele>276</ele>
        <time>2014-07-24T08:46:51Z</time>
      </trkpt>
      <trkpt lat="43.46484" lon="6.89014">
        <ele>276</ele>
        <time>2014-07-24T08:46:55Z</time>
      </trkpt>
      <trkpt lat="43.46483" lon="6.89021">
        <ele>275</ele>
        <time>2014-07-24T08:46:59Z</time>
      </trkpt>
      <trkpt lat="43.46487" lon="6.89064">
        <ele>272</ele>
        <time>2014-07-24T08:47:23Z</time>
      </trkpt>
      <trkpt lat="43.46489" lon="6.8907">
        <ele>273</ele>
        <time>2014-07-24T08:47:27Z</time>
      </trkpt>
      <trkpt lat="43.46491" lon="6.89077">
        <ele>272</ele>
        <time>2014-07-24T08:47:31Z</time>
      </trkpt>
      <trkpt lat="43.46499" lon="6.89112">
        <ele>268</ele>
        <time>2014-07-24T08:47:51Z</time>
      </trkpt>
      <trkpt lat="43.46503" lon="6.89127">
        <ele>268</ele>
        <time>2014-07-24T08:47:59Z</time>
      </trkpt>
      <trkpt lat="43.46506" lon="6.89142">
        <ele>269</ele>
        <time>2014-07-24T08:48:07Z</time>
      </trkpt>
      <trkpt lat="43.46508" lon="6.89149">
        <ele>269</ele>
        <time>2014-07-24T08:48:11Z</time>
      </trkpt>
      <trkpt lat="43.46514" lon="6.89161">
        <ele>268</ele>
        <time>2014-07-24T08:48:19Z</time>
      </trkpt>
      <trkpt lat="43.46516" lon="6.89167">
        <ele>268</ele>
        <time>2014-07-24T08:48:23Z</time>
      </trkpt>
      <trkpt lat="43.46519" lon="6.89173">
        <ele>269</ele>
        <time>2014-07-24T08:48:27Z</time>
      </trkpt>
      <trkpt lat="43.46525" lon="6.89186">
        <ele>269</ele>
        <time>2014-07-24T08:48:35Z</time>
      </trkpt>
      <trkpt lat="43.46529" lon="6.89198">
        <ele>268</ele>
        <time>2014-07-24T08:48:44Z</time>
      </trkpt>
      <trkpt lat="43.46528" lon="6.89204">
        <ele>268</ele>
        <time>2014-07-24T08:48:49Z</time>
      </trkpt>
      <trkpt lat="43.46529" lon="6.89211">
        <ele>268</ele>
        <time>2014-07-24T08:48:53Z</time>
      </trkpt>
      <trkpt lat="43.46532" lon="6.89226">
        <ele>267</ele>
        <time>2014-07-24T08:49:01Z</time>
      </trkpt>
      <trkpt lat="43.46534" lon="6.89238">
        <ele>267</ele>
        <time>2014-07-24T08:49:07Z</time>
      </trkpt>
      <trkpt lat="43.46534" lon="6.89245">
        <ele>268</ele>
        <time>2014-07-24T08:49:10Z</time>
      </trkpt>
      <trkpt lat="43.46536" lon="6.89252">
        <ele>268</ele>
        <time>2014-07-24T08:49:14Z</time>
      </trkpt>
      <trkpt lat="43.46536" lon="6.89259">
        <ele>268</ele>
        <time>2014-07-24T08:49:18Z</time>
      </trkpt>
      <trkpt lat="43.46533" lon="6.89286">
        <ele>272</ele>
        <time>2014-07-24T08:49:34Z</time>
      </trkpt>
      <trkpt lat="43.46532" lon="6.89293">
        <ele>272</ele>
        <time>2014-07-24T08:49:38Z</time>
      </trkpt>
      <trkpt lat="43.4653" lon="6.893">
        <ele>272</ele>
        <time>2014-07-24T08:49:42Z</time>
      </trkpt>
      <trkpt lat="43.46528" lon="6.89316">
        <ele>273</ele>
        <time>2014-07-24T08:49:50Z</time>
      </trkpt>
      <trkpt lat="43.46526" lon="6.89321">
        <ele>272</ele>
        <time>2014-07-24T08:49:53Z</time>
      </trkpt>
      <trkpt lat="43.46523" lon="6.89328">
        <ele>272</ele>
        <time>2014-07-24T08:49:57Z</time>
      </trkpt>
      <trkpt lat="43.46519" lon="6.8934">
        <ele>272</ele>
        <time>2014-07-24T08:50:04Z</time>
      </trkpt>
      <trkpt lat="43.46518" lon="6.89347">
        <ele>271</ele>
        <time>2014-07-24T08:50:07Z</time>
      </trkpt>
      <trkpt lat="43.46517" lon="6.89353">
        <ele>271</ele>
        <time>2014-07-24T08:50:10Z</time>
      </trkpt>
      <trkpt lat="43.46515" lon="6.8936">
        <ele>270</ele>
        <time>2014-07-24T08:50:14Z</time>
      </trkpt>
      <trkpt lat="43.46509" lon="6.89371">
        <ele>270</ele>
        <time>2014-07-24T08:50:23Z</time>
      </trkpt>
      <trkpt lat="43.46487" lon="6.89409">
        <ele>274</ele>
        <time>2014-07-24T08:50:48Z</time>
      </trkpt>
      <trkpt lat="43.46485" lon="6.89415">
        <ele>274</ele>
        <time>2014-07-24T08:50:52Z</time>
      </trkpt>
      <trkpt lat="43.46478" lon="6.89432">
        <ele>273</ele>
        <time>2014-07-24T08:51:03Z</time>
      </trkpt>
      <trkpt lat="43.46477" lon="6.8944">
        <ele>273</ele>
        <time>2014-07-24T08:51:07Z</time>
      </trkpt>
      <trkpt lat="43.46477" lon="6.89447">
        <ele>274</ele>
        <time>2014-07-24T08:51:11Z</time>
      </trkpt>
      <trkpt lat="43.46488" lon="6.89507">
        <ele>267</ele>
        <time>2014-07-24T08:51:42Z</time>
      </trkpt>
      <trkpt lat="43.46491" lon="6.8953">
        <ele>267</ele>
        <time>2014-07-24T08:51:55Z</time>
      </trkpt>
      <trkpt lat="43.46497" lon="6.89545">
        <ele>265</ele>
        <time>2014-07-24T08:52:03Z</time>
      </trkpt>
      <trkpt lat="43.46499" lon="6.89551">
        <ele>265</ele>
        <time>2014-07-24T08:52:07Z</time>
      </trkpt>
      <trkpt lat="43.465" lon="6.89558">
        <ele>265</ele>
        <time>2014-07-24T08:52:11Z</time>
      </trkpt>
      <trkpt lat="43.46511" lon="6.89595">
        <ele>269</ele>
        <time>2014-07-24T08:52:31Z</time>
      </trkpt>
      <trkpt lat="43.46513" lon="6.89603">
        <ele>269</ele>
        <time>2014-07-24T08:52:35Z</time>
      </trkpt>
      <trkpt lat="43.4653" lon="6.89645">
        <ele>258</ele>
        <time>2014-07-24T08:53:05Z</time>
      </trkpt>
      <trkpt lat="43.46533" lon="6.89658">
        <ele>257</ele>
        <time>2014-07-24T08:53:13Z</time>
      </trkpt>
      <trkpt lat="43.46535" lon="6.89686">
        <ele>259</ele>
        <time>2014-07-24T08:53:27Z</time>
      </trkpt>
      <trkpt lat="43.46536" lon="6.89693">
        <ele>259</ele>
        <time>2014-07-24T08:53:30Z</time>
      </trkpt>
      <trkpt lat="43.46537" lon="6.897">
        <ele>259</ele>
        <time>2014-07-24T08:53:34Z</time>
      </trkpt>
      <trkpt lat="43.4654" lon="6.8972">
        <ele>257</ele>
        <time>2014-07-24T08:53:46Z</time>
      </trkpt>
      <trkpt lat="43.46548" lon="6.89747">
        <ele>260</ele>
        <time>2014-07-24T08:54:01Z</time>
      </trkpt>
      <trkpt lat="43.46571" lon="6.89787">
        <ele>261</ele>
        <time>2014-07-24T08:54:30Z</time>
      </trkpt>
      <trkpt lat="43.46575" lon="6.89799">
        <ele>263</ele>
        <time>2014-07-24T08:54:38Z</time>
      </trkpt>
      <trkpt lat="43.46578" lon="6.89805">
        <ele>264</ele>
        <time>2014-07-24T08:54:42Z</time>
      </trkpt>
      <trkpt lat="43.46589" lon="6.89836">
        <ele>258</ele>
        <time>2014-07-24T08:55:02Z</time>
      </trkpt>
      <trkpt lat="43.46591" lon="6.89843">
        <ele>258</ele>
        <time>2014-07-24T08:55:07Z</time>
      </trkpt>
      <trkpt lat="43.46595" lon="6.89863">
        <ele>260</ele>
        <time>2014-07-24T08:55:18Z</time>
      </trkpt>
      <trkpt lat="43.46598" lon="6.89869">
        <ele>260</ele>
        <time>2014-07-24T08:55:22Z</time>
      </trkpt>
      <trkpt lat="43.46601" lon="6.89875">
        <ele>260</ele>
        <time>2014-07-24T08:55:27Z</time>
      </trkpt>
      <trkpt lat="43.46601" lon="6.89888">
        <ele>261</ele>
        <time>2014-07-24T08:55:34Z</time>
      </trkpt>
      <trkpt lat="43.46601" lon="6.89895">
        <ele>261</ele>
        <time>2014-07-24T08:55:37Z</time>
      </trkpt>
      <trkpt lat="43.46601" lon="6.89902">
        <ele>261</ele>
        <time>2014-07-24T08:55:41Z</time>
      </trkpt>
      <trkpt lat="43.46599" lon="6.89951">
        <ele>265</ele>
        <time>2014-07-24T08:56:06Z</time>
      </trkpt>
      <trkpt lat="43.46595" lon="6.89966">
        <ele>265</ele>
        <time>2014-07-24T08:56:14Z</time>
      </trkpt>
      <trkpt lat="43.46598" lon="6.90009">
        <ele>267</ele>
        <time>2014-07-24T08:56:39Z</time>
      </trkpt>
      <trkpt lat="43.46608" lon="6.90032">
        <ele>265</ele>
        <time>2014-07-24T08:56:55Z</time>
      </trkpt>
      <trkpt lat="43.46617" lon="6.9005">
        <ele>265</ele>
        <time>2014-07-24T08:57:07Z</time>
      </trkpt>
      <trkpt lat="43.46621" lon="6.90062">
        <ele>265</ele>
        <time>2014-07-24T08:57:14Z</time>
      </trkpt>
      <trkpt lat="43.46626" lon="6.90074">
        <ele>264</ele>
        <time>2014-07-24T08:57:22Z</time>
      </trkpt>
      <trkpt lat="43.46628" lon="6.9008">
        <ele>264</ele>
        <time>2014-07-24T08:57:25Z</time>
      </trkpt>
      <trkpt lat="43.46631" lon="6.90085">
        <ele>264</ele>
        <time>2014-07-24T08:57:29Z</time>
      </trkpt>
      <trkpt lat="43.46633" lon="6.90091">
        <ele>264</ele>
        <time>2014-07-24T08:57:33Z</time>
      </trkpt>
      <trkpt lat="43.46638" lon="6.90104">
        <ele>265</ele>
        <time>2014-07-24T08:57:41Z</time>
      </trkpt>
      <trkpt lat="43.46641" lon="6.9011">
        <ele>265</ele>
        <time>2014-07-24T08:57:45Z</time>
      </trkpt>
      <trkpt lat="43.46649" lon="6.90129">
        <ele>264</ele>
        <time>2014-07-24T08:57:59Z</time>
      </trkpt>
      <trkpt lat="43.46656" lon="6.90154">
        <ele>262</ele>
        <time>2014-07-24T08:58:15Z</time>
      </trkpt>
      <trkpt lat="43.46659" lon="6.90161">
        <ele>262</ele>
        <time>2014-07-24T08:58:19Z</time>
      </trkpt>
      <trkpt lat="43.46662" lon="6.90181">
        <ele>266</ele>
        <time>2014-07-24T08:58:32Z</time>
      </trkpt>
      <trkpt lat="43.46662" lon="6.90189">
        <ele>266</ele>
        <time>2014-07-24T08:58:37Z</time>
      </trkpt>
      <trkpt lat="43.46662" lon="6.90195">
        <ele>266</ele>
        <time>2014-07-24T08:58:41Z</time>
      </trkpt>
      <trkpt lat="43.4666" lon="6.90202">
        <ele>265</ele>
        <time>2014-07-24T08:58:46Z</time>
      </trkpt>
      <trkpt lat="43.46658" lon="6.90222">
        <ele>264</ele>
        <time>2014-07-24T08:58:57Z</time>
      </trkpt>
      <trkpt lat="43.46657" lon="6.90236">
        <ele>266</ele>
        <time>2014-07-24T08:59:05Z</time>
      </trkpt>
      <trkpt lat="43.46656" lon="6.90251">
        <ele>266</ele>
        <time>2014-07-24T08:59:13Z</time>
      </trkpt>
      <trkpt lat="43.46655" lon="6.90273">
        <ele>264</ele>
        <time>2014-07-24T08:59:25Z</time>
      </trkpt>
      <trkpt lat="43.46653" lon="6.90281">
        <ele>264</ele>
        <time>2014-07-24T08:59:30Z</time>
      </trkpt>
      <trkpt lat="43.46652" lon="6.90289">
        <ele>264</ele>
        <time>2014-07-24T08:59:34Z</time>
      </trkpt>
      <trkpt lat="43.46648" lon="6.90302">
        <ele>262</ele>
        <time>2014-07-24T08:59:42Z</time>
      </trkpt>
      <trkpt lat="43.46648" lon="6.90309">
        <ele>261</ele>
        <time>2014-07-24T08:59:46Z</time>
      </trkpt>
      <trkpt lat="43.46646" lon="6.90323">
        <ele>260</ele>
        <time>2014-07-24T08:59:55Z</time>
      </trkpt>
      <trkpt lat="43.46647" lon="6.90329">
        <ele>260</ele>
        <time>2014-07-24T08:59:59Z</time>
      </trkpt>
      <trkpt lat="43.4665" lon="6.90335">
        <ele>261</ele>
        <time>2014-07-24T09:00:04Z</time>
      </trkpt>
      <trkpt lat="43.46653" lon="6.9034">
        <ele>261</ele>
        <time>2014-07-24T09:00:08Z</time>
      </trkpt>
      <trkpt lat="43.46661" lon="6.9035">
        <ele>258</ele>
        <time>2014-07-24T09:00:17Z</time>
      </trkpt>
      <trkpt lat="43.46662" lon="6.90356">
        <ele>257</ele>
        <time>2014-07-24T09:00:21Z</time>
      </trkpt>
      <trkpt lat="43.46664" lon="6.90371">
        <ele>256</ele>
        <time>2014-07-24T09:00:29Z</time>
      </trkpt>
      <trkpt lat="43.46666" lon="6.90377">
        <ele>254</ele>
        <time>2014-07-24T09:00:33Z</time>
      </trkpt>
      <trkpt lat="43.46668" lon="6.90383">
        <ele>254</ele>
        <time>2014-07-24T09:00:38Z</time>
      </trkpt>
      <trkpt lat="43.46672" lon="6.90394">
        <ele>251</ele>
        <time>2014-07-24T09:00:46Z</time>
      </trkpt>
      <trkpt lat="43.46674" lon="6.90401">
        <ele>251</ele>
        <time>2014-07-24T09:00:50Z</time>
      </trkpt>
      <trkpt lat="43.46677" lon="6.90408">
        <ele>252</ele>
        <time>2014-07-24T09:00:54Z</time>
      </trkpt>
      <trkpt lat="43.46677" lon="6.90416">
        <ele>254</ele>
        <time>2014-07-24T09:00:58Z</time>
      </trkpt>
      <trkpt lat="43.46678" lon="6.90437">
        <ele>254</ele>
        <time>2014-07-24T09:01:09Z</time>
      </trkpt>
      <trkpt lat="43.46678" lon="6.90444">
        <ele>254</ele>
        <time>2014-07-24T09:01:14Z</time>
      </trkpt>
      <trkpt lat="43.46682" lon="6.90456">
        <ele>252</ele>
        <time>2014-07-24T09:01:22Z</time>
      </trkpt>
      <trkpt lat="43.46686" lon="6.90462">
        <ele>252</ele>
        <time>2014-07-24T09:01:26Z</time>
      </trkpt>
      <trkpt lat="43.46708" lon="6.90501">
        <ele>246</ele>
        <time>2014-07-24T09:01:55Z</time>
      </trkpt>
      <trkpt lat="43.46711" lon="6.90506">
        <ele>246</ele>
        <time>2014-07-24T09:01:58Z</time>
      </trkpt>
      <trkpt lat="43.46714" lon="6.90512">
        <ele>246</ele>
        <time>2014-07-24T09:02:02Z</time>
      </trkpt>
      <trkpt lat="43.4672" lon="6.90525">
        <ele>248</ele>
        <time>2014-07-24T09:02:10Z</time>
      </trkpt>
      <trkpt lat="43.46728" lon="6.90536">
        <ele>248</ele>
        <time>2014-07-24T09:02:17Z</time>
      </trkpt>
      <trkpt lat="43.46732" lon="6.90541">
        <ele>249</ele>
        <time>2014-07-24T09:02:21Z</time>
      </trkpt>
      <trkpt lat="43.4674" lon="6.9055">
        <ele>249</ele>
        <time>2014-07-24T09:02:29Z</time>
      </trkpt>
      <trkpt lat="43.46741" lon="6.90557">
        <ele>250</ele>
        <time>2014-07-24T09:02:33Z</time>
      </trkpt>
      <trkpt lat="43.46742" lon="6.90563">
        <ele>250</ele>
        <time>2014-07-24T09:02:37Z</time>
      </trkpt>
      <trkpt lat="43.46741" lon="6.90558">
        <ele>250</ele>
        <time>2014-07-24T09:03:24Z</time>
      </trkpt>
      <trkpt lat="43.46735" lon="6.90559">
        <ele>250</ele>
        <time>2014-07-24T09:04:39Z</time>
      </trkpt>
      <trkpt lat="43.46733" lon="6.90558">
        <ele>249</ele>
        <time>2014-07-24T09:05:33Z</time>
      </trkpt>
      <trkpt lat="43.46733" lon="6.90566">
        <ele>247</ele>
        <time>2014-07-24T09:05:40Z</time>
      </trkpt>
      <trkpt lat="43.46741" lon="6.90619">
        <ele>235</ele>
        <time>2014-07-24T09:06:11Z</time>
      </trkpt>
      <trkpt lat="43.46742" lon="6.90625">
        <ele>234</ele>
        <time>2014-07-24T09:06:15Z</time>
      </trkpt>
      <trkpt lat="43.46742" lon="6.90632">
        <ele>233</ele>
        <time>2014-07-24T09:06:20Z</time>
      </trkpt>
      <trkpt lat="43.46742" lon="6.90639">
        <ele>232</ele>
        <time>2014-07-24T09:06:24Z</time>
      </trkpt>
      <trkpt lat="43.46743" lon="6.90653">
        <ele>233</ele>
        <time>2014-07-24T09:06:34Z</time>
      </trkpt>
      <trkpt lat="43.46744" lon="6.9066">
        <ele>233</ele>
        <time>2014-07-24T09:06:39Z</time>
      </trkpt>
      <trkpt lat="43.46739" lon="6.90685">
        <ele>229</ele>
        <time>2014-07-24T09:06:57Z</time>
      </trkpt>
      <trkpt lat="43.46717" lon="6.90713">
        <ele>223</ele>
        <time>2014-07-24T09:07:24Z</time>
      </trkpt>
      <trkpt lat="43.46712" lon="6.90713">
        <ele>224</ele>
        <time>2014-07-24T09:07:29Z</time>
      </trkpt>
      <trkpt lat="43.46707" lon="6.90715">
        <ele>224</ele>
        <time>2014-07-24T09:07:34Z</time>
      </trkpt>
      <trkpt lat="43.46702" lon="6.90714">
        <ele>225</ele>
        <time>2014-07-24T09:07:40Z</time>
      </trkpt>
      <trkpt lat="43.46697" lon="6.90715">
        <ele>224</ele>
        <time>2014-07-24T09:07:45Z</time>
      </trkpt>
      <trkpt lat="43.46692" lon="6.90713">
        <ele>224</ele>
        <time>2014-07-24T09:07:50Z</time>
      </trkpt>
      <trkpt lat="43.46687" lon="6.90711">
        <ele>224</ele>
        <time>2014-07-24T09:07:55Z</time>
      </trkpt>
      <trkpt lat="43.46682" lon="6.90716">
        <ele>223</ele>
        <time>2014-07-24T09:07:59Z</time>
      </trkpt>
      <trkpt lat="43.46663" lon="6.90721">
        <ele>214</ele>
        <time>2014-07-24T09:08:18Z</time>
      </trkpt>
      <trkpt lat="43.46659" lon="6.90717">
        <ele>214</ele>
        <time>2014-07-24T09:08:22Z</time>
      </trkpt>
      <trkpt lat="43.46654" lon="6.90717">
        <ele>213</ele>
        <time>2014-07-24T09:08:28Z</time>
      </trkpt>
      <trkpt lat="43.46638" lon="6.90712">
        <ele>214</ele>
        <time>2014-07-24T09:08:43Z</time>
      </trkpt>
      <trkpt lat="43.46634" lon="6.90708">
        <ele>214</ele>
        <time>2014-07-24T09:08:48Z</time>
      </trkpt>
      <trkpt lat="43.46615" lon="6.90695">
        <ele>211</ele>
        <time>2014-07-24T09:09:07Z</time>
      </trkpt>
      <trkpt lat="43.46601" lon="6.90688">
        <ele>211</ele>
        <time>2014-07-24T09:09:19Z</time>
      </trkpt>
      <trkpt lat="43.46596" lon="6.90684">
        <ele>212</ele>
        <time>2014-07-24T09:09:23Z</time>
      </trkpt>
      <trkpt lat="43.46592" lon="6.9068">
        <ele>211</ele>
        <time>2014-07-24T09:09:27Z</time>
      </trkpt>
      <trkpt lat="43.46588" lon="6.90682">
        <ele>209</ele>
        <time>2014-07-24T09:09:32Z</time>
      </trkpt>
      <trkpt lat="43.46578" lon="6.90687">
        <ele>204</ele>
        <time>2014-07-24T09:09:41Z</time>
      </trkpt>
      <trkpt lat="43.46559" lon="6.9069">
        <ele>198</ele>
        <time>2014-07-24T09:09:59Z</time>
      </trkpt>
      <trkpt lat="43.4655" lon="6.90687">
        <ele>197</ele>
        <time>2014-07-24T09:10:08Z</time>
      </trkpt>
      <trkpt lat="43.46545" lon="6.90688">
        <ele>195</ele>
        <time>2014-07-24T09:10:13Z</time>
      </trkpt>
      <trkpt lat="43.4654" lon="6.90688">
        <ele>195</ele>
        <time>2014-07-24T09:10:18Z</time>
      </trkpt>
      <trkpt lat="43.46535" lon="6.90687">
        <ele>196</ele>
        <time>2014-07-24T09:10:23Z</time>
      </trkpt>
      <trkpt lat="43.4653" lon="6.9069">
        <ele>195</ele>
        <time>2014-07-24T09:10:28Z</time>
      </trkpt>
      <trkpt lat="43.46526" lon="6.90686">
        <ele>194</ele>
        <time>2014-07-24T09:10:33Z</time>
      </trkpt>
      <trkpt lat="43.46522" lon="6.90691">
        <ele>193</ele>
        <time>2014-07-24T09:10:38Z</time>
      </trkpt>
      <trkpt lat="43.46508" lon="6.90696">
        <ele>188</ele>
        <time>2014-07-24T09:10:52Z</time>
      </trkpt>
      <trkpt lat="43.46503" lon="6.90699">
        <ele>188</ele>
        <time>2014-07-24T09:10:56Z</time>
      </trkpt>
      <trkpt lat="43.4649" lon="6.90708">
        <ele>186</ele>
        <time>2014-07-24T09:11:08Z</time>
      </trkpt>
      <trkpt lat="43.46485" lon="6.90711">
        <ele>186</ele>
        <time>2014-07-24T09:11:12Z</time>
      </trkpt>
      <trkpt lat="43.46482" lon="6.90715">
        <ele>188</ele>
        <time>2014-07-24T09:11:16Z</time>
      </trkpt>
      <trkpt lat="43.46477" lon="6.90718">
        <ele>188</ele>
        <time>2014-07-24T09:11:20Z</time>
      </trkpt>
      <trkpt lat="43.46476" lon="6.90724">
        <ele>188</ele>
        <time>2014-07-24T09:11:24Z</time>
      </trkpt>
      <trkpt lat="43.46475" lon="6.9073">
        <ele>188</ele>
        <time>2014-07-24T09:11:28Z</time>
      </trkpt>
      <trkpt lat="43.46475" lon="6.90736">
        <ele>189</ele>
        <time>2014-07-24T09:11:33Z</time>
      </trkpt>
      <trkpt lat="43.46472" lon="6.90742">
        <ele>189</ele>
        <time>2014-07-24T09:11:38Z</time>
      </trkpt>
      <trkpt lat="43.4647" lon="6.90748">
        <ele>189</ele>
        <time>2014-07-24T09:11:43Z</time>
      </trkpt>
      <trkpt lat="43.46462" lon="6.90757">
        <ele>188</ele>
        <time>2014-07-24T09:11:51Z</time>
      </trkpt>
      <trkpt lat="43.46459" lon="6.90762">
        <ele>187</ele>
        <time>2014-07-24T09:11:56Z</time>
      </trkpt>
      <trkpt lat="43.46457" lon="6.90784">
        <ele>188</ele>
        <time>2014-07-24T09:12:06Z</time>
      </trkpt>
      <trkpt lat="43.46454" lon="6.9079">
        <ele>188</ele>
        <time>2014-07-24T09:12:10Z</time>
      </trkpt>
      <trkpt lat="43.46452" lon="6.90797">
        <ele>188</ele>
        <time>2014-07-24T09:12:15Z</time>
      </trkpt>
      <trkpt lat="43.46452" lon="6.90804">
        <ele>188</ele>
        <time>2014-07-24T09:12:19Z</time>
      </trkpt>
      <trkpt lat="43.46453" lon="6.90818">
        <ele>186</ele>
        <time>2014-07-24T09:12:28Z</time>
      </trkpt>
      <trkpt lat="43.46451" lon="6.90824">
        <ele>184</ele>
        <time>2014-07-24T09:12:34Z</time>
      </trkpt>
      <trkpt lat="43.4645" lon="6.90832">
        <ele>183</ele>
        <time>2014-07-24T09:12:39Z</time>
      </trkpt>
      <trkpt lat="43.46449" lon="6.90838">
        <ele>183</ele>
        <time>2014-07-24T09:12:43Z</time>
      </trkpt>
      <trkpt lat="43.46447" lon="6.90845">
        <ele>183</ele>
        <time>2014-07-24T09:12:47Z</time>
      </trkpt>
      <trkpt lat="43.46449" lon="6.90858">
        <ele>180</ele>
        <time>2014-07-24T09:12:56Z</time>
      </trkpt>
      <trkpt lat="43.46445" lon="6.90864">
        <ele>180</ele>
        <time>2014-07-24T09:13:01Z</time>
      </trkpt>
      <trkpt lat="43.46442" lon="6.9087">
        <ele>181</ele>
        <time>2014-07-24T09:13:07Z</time>
      </trkpt>
      <trkpt lat="43.46442" lon="6.90877">
        <ele>182</ele>
        <time>2014-07-24T09:13:13Z</time>
      </trkpt>
      <trkpt lat="43.46441" lon="6.90883">
        <ele>180</ele>
        <time>2014-07-24T09:13:19Z</time>
      </trkpt>
      <trkpt lat="43.46437" lon="6.90888">
        <ele>179</ele>
        <time>2014-07-24T09:13:26Z</time>
      </trkpt>
      <trkpt lat="43.46435" lon="6.90893">
        <ele>178</ele>
        <time>2014-07-24T09:13:32Z</time>
      </trkpt>
      <trkpt lat="43.46429" lon="6.90904">
        <ele>181</ele>
        <time>2014-07-24T09:13:43Z</time>
      </trkpt>
      <trkpt lat="43.46426" lon="6.90911">
        <ele>180</ele>
        <time>2014-07-24T09:13:57Z</time>
      </trkpt>
      <trkpt lat="43.46425" lon="6.90917">
        <ele>179</ele>
        <time>2014-07-24T09:14:00Z</time>
      </trkpt>
      <trkpt lat="43.46422" lon="6.90921">
        <ele>179</ele>
        <time>2014-07-24T09:14:09Z</time>
      </trkpt>
      <trkpt lat="43.46421" lon="6.9093">
        <ele>180</ele>
        <time>2014-07-24T09:14:53Z</time>
      </trkpt>
      <trkpt lat="43.46417" lon="6.90934">
        <ele>180</ele>
        <time>2014-07-24T09:14:57Z</time>
      </trkpt>
      <trkpt lat="43.46413" lon="6.90936">
        <ele>180</ele>
        <time>2014-07-24T09:15:01Z</time>
      </trkpt>
      <trkpt lat="43.46408" lon="6.90939">
        <ele>180</ele>
        <time>2014-07-24T09:15:06Z</time>
      </trkpt>
      <trkpt lat="43.46403" lon="6.90937">
        <ele>180</ele>
        <time>2014-07-24T09:15:10Z</time>
      </trkpt>
      <trkpt lat="43.46398" lon="6.90935">
        <ele>178</ele>
        <time>2014-07-24T09:15:15Z</time>
      </trkpt>
      <trkpt lat="43.46382" lon="6.90917">
        <ele>173</ele>
        <time>2014-07-24T09:15:31Z</time>
      </trkpt>
      <trkpt lat="43.46379" lon="6.90913">
        <ele>173</ele>
        <time>2014-07-24T09:15:35Z</time>
      </trkpt>
      <trkpt lat="43.46375" lon="6.90912">
        <ele>173</ele>
        <time>2014-07-24T09:15:43Z</time>
      </trkpt>
      <trkpt lat="43.46368" lon="6.90913">
        <ele>169</ele>
        <time>2014-07-24T09:16:39Z</time>
      </trkpt>
      <trkpt lat="43.46354" lon="6.90906">
        <ele>167</ele>
        <time>2014-07-24T09:16:51Z</time>
      </trkpt>
      <trkpt lat="43.46344" lon="6.90906">
        <ele>166</ele>
        <time>2014-07-24T09:17:01Z</time>
      </trkpt>
      <trkpt lat="43.46338" lon="6.90905">
        <ele>166</ele>
        <time>2014-07-24T09:17:05Z</time>
      </trkpt>
      <trkpt lat="43.46333" lon="6.90904">
        <ele>165</ele>
        <time>2014-07-24T09:17:10Z</time>
      </trkpt>
      <trkpt lat="43.46329" lon="6.909">
        <ele>165</ele>
        <time>2014-07-24T09:17:15Z</time>
      </trkpt>
      <trkpt lat="43.46325" lon="6.90894">
        <ele>165</ele>
        <time>2014-07-24T09:17:19Z</time>
      </trkpt>
      <trkpt lat="43.46317" lon="6.90868">
        <ele>163</ele>
        <time>2014-07-24T09:17:35Z</time>
      </trkpt>
      <trkpt lat="43.46314" lon="6.90854">
        <ele>163</ele>
        <time>2014-07-24T09:17:44Z</time>
      </trkpt>
      <trkpt lat="43.46295" lon="6.90823">
        <ele>166</ele>
        <time>2014-07-24T09:18:05Z</time>
      </trkpt>
      <trkpt lat="43.46289" lon="6.90813">
        <ele>166</ele>
        <time>2014-07-24T09:18:13Z</time>
      </trkpt>
      <trkpt lat="43.46262" lon="6.90772">
        <ele>163</ele>
        <time>2014-07-24T09:18:44Z</time>
      </trkpt>
      <trkpt lat="43.46246" lon="6.90757">
        <ele>165</ele>
        <time>2014-07-24T09:18:58Z</time>
      </trkpt>
      <trkpt lat="43.46221" lon="6.90737">
        <ele>164</ele>
        <time>2014-07-24T09:19:20Z</time>
      </trkpt>
      <trkpt lat="43.46196" lon="6.90716">
        <ele>165</ele>
        <time>2014-07-24T09:19:43Z</time>
      </trkpt>
      <trkpt lat="43.46188" lon="6.9071">
        <ele>166</ele>
        <time>2014-07-24T09:19:49Z</time>
      </trkpt>
      <trkpt lat="43.46181" lon="6.90701">
        <ele>166</ele>
        <time>2014-07-24T09:19:58Z</time>
      </trkpt>
      <trkpt lat="43.46146" lon="6.90663">
        <ele>162</ele>
        <time>2014-07-24T09:20:30Z</time>
      </trkpt>
      <trkpt lat="43.46144" lon="6.90657">
        <ele>161</ele>
        <time>2014-07-24T09:20:34Z</time>
      </trkpt>
      <trkpt lat="43.46147" lon="6.90651">
        <ele>161</ele>
        <time>2014-07-24T09:20:39Z</time>
      </trkpt>
      <trkpt lat="43.4615" lon="6.9065">
        <ele>161</ele>
        <time>2014-07-24T09:20:46Z</time>
      </trkpt>
    </trkseg>
  </trk>
</gpx>